LKPR/PRG METAR and TAF weather

Enter ICAO airport designator
Station Type Date Time Source
LKPR METAR 2019/12/06 14:00 UTC NOAA

LKPR 061400Z 20007KT CAVOK 04/M04 Q1015 NOSIG


Station Type Date Time Source
LKPR Decoded METAR 2019/12/06 14:00 UTC NOAA

Praha / Ruzyne, Czech Republic (LKPR) 50-06N 014-15E 365M
Dec 06, 2019 - 09:00 AM EST / 2019.12.06 1400 UTC
Wind: from the SSW (200 degrees) at 8 MPH (7 KT):0
Visibility: greater than 7 mile(s):0
Temperature: 39 F (4 C)
Dew Point: 24 F (-4 C)
Relative Humidity: 55%
Pressure (altimeter): 29.97 in. Hg (1015 hPa)
ob: LKPR 061400Z 20007KT CAVOK 04/M04 Q1015 NOSIG
cycle: 14

Station Type Date Time Source
LKPR TAF 2019/12/06 12:06 UTC NOAA

TAF LKPR 061100Z 0612/0718 20010KT CAVOK
BECMG 0700/0702 22014KT 9999 BKN015
TEMPO 0702/0708 7000 RA BKN009
TEMPO 0702/0718 23020G30KT
BECMG 0708/0710 BKN025
TEMPO 0710/0718 SCT030

Example: see airport list